sensor_id;sensor_type;location;lat;lon;timestamp;P1;durP1;ratioP1;P2;durP2;ratioP2
11616;SDS011;5864;52.998;9.068;2023-04-05T00:02:11;3.93;;;1.97;;
11616;SDS011;5864;52.998;9.068;2023-04-05T00:05:01;4.70;;;1.97;;
11616;SDS011;5864;52.998;9.068;2023-04-05T00:07:47;3.90;;;1.87;;
11616;SDS011;5864;52.998;9.068;2023-04-05T00:10:36;2.70;;;1.90;;
11616;SDS011;5864;52.998;9.068;2023-04-05T00:13:23;3.97;;;2.10;;
11616;SDS011;5864;52.998;9.068;2023-04-05T00:16:09;3.30;;;2.00;;
11616;SDS011;5864;52.998;9.068;2023-04-05T00:18:56;2.80;;;1.97;;
11616;SDS011;5864;52.998;9.068;2023-04-05T00:21:42;2.33;;;1.90;;
11616;SDS011;5864;52.998;9.068;2023-04-05T00:24:30;3.90;;;1.90;;
11616;SDS011;5864;52.998;9.068;2023-04-05T00:27:16;2.47;;;1.43;;
11616;SDS011;5864;52.998;9.068;2023-04-05T00:30:01;4.97;;;2.00;;
11616;SDS011;5864;52.998;9.068;2023-04-05T00:32:48;3.57;;;1.80;;
11616;SDS011;5864;52.998;9.068;2023-04-05T00:35:35;2.10;;;1.90;;
11616;SDS011;5864;52.998;9.068;2023-04-05T00:38:20;1.97;;;1.73;;
11616;SDS011;5864;52.998;9.068;2023-04-05T00:41:06;3.50;;;1.83;;
11616;SDS011;5864;52.998;9.068;2023-04-05T00:43:52;3.20;;;1.87;;
11616;SDS011;5864;52.998;9.068;2023-04-05T00:46:39;3.13;;;1.77;;
11616;SDS011;5864;52.998;9.068;2023-04-05T00:49:25;3.03;;;2.07;;
11616;SDS011;5864;52.998;9.068;2023-04-05T00:52:13;2.87;;;1.70;;
11616;SDS011;5864;52.998;9.068;2023-04-05T00:54:59;2.77;;;1.80;;
11616;SDS011;5864;52.998;9.068;2023-04-05T00:57:45;4.80;;;2.03;;
11616;SDS011;5864;52.998;9.068;2023-04-05T01:00:32;2.83;;;1.90;;
11616;SDS011;5864;52.998;9.068;2023-04-05T01:03:19;2.27;;;1.70;;
11616;SDS011;5864;52.998;9.068;2023-04-05T01:06:15;2.53;;;1.90;;
11616;SDS011;5864;52.998;9.068;2023-04-05T01:09:10;1.93;;;1.73;;
11616;SDS011;5864;52.998;9.068;2023-04-05T01:12:05;2.87;;;1.70;;
11616;SDS011;5864;52.998;9.068;2023-04-05T01:14:53;3.63;;;1.90;;
11616;SDS011;5864;52.998;9.068;2023-04-05T01:17:40;2.07;;;1.80;;
11616;SDS011;5864;52.998;9.068;2023-04-05T01:20:27;3.67;;;1.70;;
11616;SDS011;5864;52.998;9.068;2023-04-05T01:23:26;2.20;;;1.80;;
11616;SDS011;5864;52.998;9.068;2023-04-05T01:26:32;3.93;;;2.00;;
11616;SDS011;5864;52.998;9.068;2023-04-05T01:29:49;1.90;;;1.70;;
11616;SDS011;5864;52.998;9.068;2023-04-05T01:32:44;3.20;;;2.10;;
11616;SDS011;5864;52.998;9.068;2023-04-05T01:35:36;4.27;;;2.07;;
11616;SDS011;5864;52.998;9.068;2023-04-05T01:38:28;3.73;;;1.83;;
11616;SDS011;5864;52.998;9.068;2023-04-05T01:41:15;2.63;;;2.13;;
11616;SDS011;5864;52.998;9.068;2023-04-05T01:44:01;2.63;;;2.00;;
11616;SDS011;5864;52.998;9.068;2023-04-05T01:46:48;2.73;;;1.80;;
11616;SDS011;5864;52.998;9.068;2023-04-05T01:49:34;2.50;;;1.93;;
11616;SDS011;5864;52.998;9.068;2023-04-05T01:52:20;5.37;;;2.30;;
11616;SDS011;5864;52.998;9.068;2023-04-05T01:55:05;3.67;;;1.93;;
11616;SDS011;5864;52.998;9.068;2023-04-05T01:57:53;3.27;;;2.07;;
11616;SDS011;5864;52.998;9.068;2023-04-05T02:00:39;3.03;;;1.90;;
11616;SDS011;5864;52.998;9.068;2023-04-05T02:03:26;2.90;;;1.90;;
11616;SDS011;5864;52.998;9.068;2023-04-05T02:06:12;3.60;;;2.03;;
11616;SDS011;5864;52.998;9.068;2023-04-05T02:08:57;2.47;;;1.77;;
11616;SDS011;5864;52.998;9.068;2023-04-05T02:11:43;2.50;;;1.70;;
11616;SDS011;5864;52.998;9.068;2023-04-05T02:14:29;2.90;;;1.87;;
11616;SDS011;5864;52.998;9.068;2023-04-05T02:17:14;3.37;;;1.97;;
11616;SDS011;5864;52.998;9.068;2023-04-05T02:20:01;3.60;;;1.80;;
11616;SDS011;5864;52.998;9.068;2023-04-05T02:22:50;3.80;;;2.13;;
11616;SDS011;5864;52.998;9.068;2023-04-05T02:25:37;3.00;;;1.90;;
11616;SDS011;5864;52.998;9.068;2023-04-05T02:28:23;4.47;;;2.10;;
11616;SDS011;5864;52.998;9.068;2023-04-05T02:31:09;2.07;;;1.80;;
11616;SDS011;5864;52.998;9.068;2023-04-05T02:33:55;3.07;;;2.47;;
11616;SDS011;5864;52.998;9.068;2023-04-05T02:36:42;3.50;;;2.20;;
11616;SDS011;5864;52.998;9.068;2023-04-05T02:39:28;2.77;;;2.00;;
11616;SDS011;5864;52.998;9.068;2023-04-05T02:42:13;2.77;;;2.17;;
11616;SDS011;5864;52.998;9.068;2023-04-05T02:44:59;3.57;;;2.17;;
11616;SDS011;5864;52.998;9.068;2023-04-05T02:47:45;3.03;;;1.90;;
11616;SDS011;5864;52.998;9.068;2023-04-05T02:50:30;2.37;;;2.03;;
11616;SDS011;5864;52.998;9.068;2023-04-05T02:53:18;3.10;;;2.10;;
11616;SDS011;5864;52.998;9.068;2023-04-05T02:56:04;5.13;;;2.40;;
11616;SDS011;5864;52.998;9.068;2023-04-05T02:58:50;2.83;;;2.10;;
11616;SDS011;5864;52.998;9.068;2023-04-05T03:01:36;3.80;;;1.90;;
11616;SDS011;5864;52.998;9.068;2023-04-05T03:04:21;3.50;;;2.03;;
11616;SDS011;5864;52.998;9.068;2023-04-05T03:07:09;2.63;;;1.90;;
11616;SDS011;5864;52.998;9.068;2023-04-05T03:09:58;3.27;;;2.10;;
11616;SDS011;5864;52.998;9.068;2023-04-05T03:12:45;4.27;;;2.30;;
11616;SDS011;5864;52.998;9.068;2023-04-05T03:15:30;3.60;;;2.40;;
11616;SDS011;5864;52.998;9.068;2023-04-05T03:18:17;3.67;;;2.27;;
11616;SDS011;5864;52.998;9.068;2023-04-05T03:21:03;2.40;;;2.10;;
11616;SDS011;5864;52.998;9.068;2023-04-05T03:23:48;3.80;;;2.10;;
11616;SDS011;5864;52.998;9.068;2023-04-05T03:26:36;4.13;;;2.53;;
11616;SDS011;5864;52.998;9.068;2023-04-05T03:29:22;2.73;;;1.97;;
11616;SDS011;5864;52.998;9.068;2023-04-05T03:32:07;4.30;;;2.50;;
11616;SDS011;5864;52.998;9.068;2023-04-05T03:34:54;2.97;;;2.20;;
11616;SDS011;5864;52.998;9.068;2023-04-05T03:37:40;2.77;;;1.80;;
11616;SDS011;5864;52.998;9.068;2023-04-05T03:40:25;4.47;;;2.10;;
11616;SDS011;5864;52.998;9.068;2023-04-05T03:43:12;3.57;;;2.23;;
11616;SDS011;5864;52.998;9.068;2023-04-05T03:45:58;3.70;;;2.20;;
11616;SDS011;5864;52.998;9.068;2023-04-05T03:48:44;4.53;;;2.53;;
11616;SDS011;5864;52.998;9.068;2023-04-05T03:51:29;3.07;;;2.17;;
11616;SDS011;5864;52.998;9.068;2023-04-05T03:54:16;2.93;;;2.03;;
11616;SDS011;5864;52.998;9.068;2023-04-05T03:57:01;3.60;;;2.60;;
11616;SDS011;5864;52.998;9.068;2023-04-05T03:59:49;4.13;;;2.70;;
11616;SDS011;5864;52.998;9.068;2023-04-05T04:02:35;4.97;;;2.60;;
11616;SDS011;5864;52.998;9.068;2023-04-05T04:05:20;3.43;;;2.27;;
11616;SDS011;5864;52.998;9.068;2023-04-05T04:08:07;3.50;;;2.20;;
11616;SDS011;5864;52.998;9.068;2023-04-05T04:10:52;3.27;;;2.10;;
11616;SDS011;5864;52.998;9.068;2023-04-05T04:13:39;3.83;;;2.33;;
11616;SDS011;5864;52.998;9.068;2023-04-05T04:16:26;6.27;;;2.30;;
11616;SDS011;5864;52.998;9.068;2023-04-05T04:19:12;4.20;;;2.30;;
11616;SDS011;5864;52.998;9.068;2023-04-05T04:21:58;3.67;;;2.50;;
11616;SDS011;5864;52.998;9.068;2023-04-05T04:24:44;3.07;;;2.17;;
11616;SDS011;5864;52.998;9.068;2023-04-05T04:27:32;3.50;;;2.20;;
11616;SDS011;5864;52.998;9.068;2023-04-05T04:30:20;3.33;;;2.23;;
11616;SDS011;5864;52.998;9.068;2023-04-05T04:33:07;4.77;;;2.10;;
11616;SDS011;5864;52.998;9.068;2023-04-05T04:35:53;4.17;;;2.50;;
11616;SDS011;5864;52.998;9.068;2023-04-05T04:38:39;4.93;;;2.40;;
11616;SDS011;5864;52.998;9.068;2023-04-05T04:41:29;2.90;;;1.87;;
11616;SDS011;5864;52.998;9.068;2023-04-05T04:44:17;17.07;;;2.70;;
11616;SDS011;5864;52.998;9.068;2023-04-05T04:47:11;3.73;;;2.40;;
11616;SDS011;5864;52.998;9.068;2023-04-05T04:50:01;5.37;;;2.70;;
11616;SDS011;5864;52.998;9.068;2023-04-05T04:52:49;5.03;;;2.50;;
11616;SDS011;5864;52.998;9.068;2023-04-05T04:55:35;4.17;;;2.63;;
11616;SDS011;5864;52.998;9.068;2023-04-05T04:58:21;3.97;;;2.47;;
11616;SDS011;5864;52.998;9.068;2023-04-05T05:01:07;4.07;;;2.67;;
11616;SDS011;5864;52.998;9.068;2023-04-05T05:03:53;3.97;;;2.50;;
11616;SDS011;5864;52.998;9.068;2023-04-05T05:06:41;3.47;;;2.50;;
11616;SDS011;5864;52.998;9.068;2023-04-05T05:09:27;3.97;;;2.70;;
11616;SDS011;5864;52.998;9.068;2023-04-05T05:12:13;6.20;;;3.43;;
11616;SDS011;5864;52.998;9.068;2023-04-05T05:14:58;3.70;;;2.40;;
11616;SDS011;5864;52.998;9.068;2023-04-05T05:17:45;4.40;;;2.85;;
11616;SDS011;5864;52.998;9.068;2023-04-05T05:20:35;5.10;;;2.60;;
11616;SDS011;5864;52.998;9.068;2023-04-05T05:23:22;5.00;;;2.67;;
11616;SDS011;5864;52.998;9.068;2023-04-05T05:26:08;4.77;;;2.67;;
11616;SDS011;5864;52.998;9.068;2023-04-05T05:28:59;7.17;;;2.70;;
11616;SDS011;5864;52.998;9.068;2023-04-05T05:31:44;8.83;;;2.97;;
11616;SDS011;5864;52.998;9.068;2023-04-05T05:34:31;4.28;;;2.63;;
11616;SDS011;5864;52.998;9.068;2023-04-05T05:37:17;3.77;;;2.50;;
11616;SDS011;5864;52.998;9.068;2023-04-05T05:40:04;3.73;;;2.40;;
11616;SDS011;5864;52.998;9.068;2023-04-05T05:42:51;6.67;;;2.90;;
11616;SDS011;5864;52.998;9.068;2023-04-05T05:45:36;3.60;;;2.57;;
11616;SDS011;5864;52.998;9.068;2023-04-05T05:48:23;8.67;;;3.10;;
11616;SDS011;5864;52.998;9.068;2023-04-05T05:51:08;6.60;;;3.00;;
11616;SDS011;5864;52.998;9.068;2023-04-05T05:53:54;7.57;;;2.80;;
11616;SDS011;5864;52.998;9.068;2023-04-05T05:56:41;7.13;;;2.67;;
11616;SDS011;5864;52.998;9.068;2023-04-05T05:59:26;8.53;;;2.57;;
11616;SDS011;5864;52.998;9.068;2023-04-05T06:02:12;4.43;;;2.57;;
11616;SDS011;5864;52.998;9.068;2023-04-05T06:04:58;4.23;;;2.30;;
11616;SDS011;5864;52.998;9.068;2023-04-05T06:07:44;4.90;;;2.53;;
11616;SDS011;5864;52.998;9.068;2023-04-05T06:10:30;4.07;;;2.43;;
11616;SDS011;5864;52.998;9.068;2023-04-05T06:13:18;6.27;;;2.60;;
11616;SDS011;5864;52.998;9.068;2023-04-05T06:16:04;3.60;;;2.40;;
11616;SDS011;5864;52.998;9.068;2023-04-05T06:18:49;4.03;;;2.40;;
11616;SDS011;5864;52.998;9.068;2023-04-05T06:21:35;5.13;;;2.47;;
11616;SDS011;5864;52.998;9.068;2023-04-05T06:24:21;3.77;;;2.33;;
11616;SDS011;5864;52.998;9.068;2023-04-05T06:27:06;3.73;;;2.47;;
11616;SDS011;5864;52.998;9.068;2023-04-05T06:29:53;3.67;;;2.27;;
11616;SDS011;5864;52.998;9.068;2023-04-05T06:32:39;3.57;;;2.33;;
11616;SDS011;5864;52.998;9.068;2023-04-05T06:35:24;5.40;;;2.63;;
11616;SDS011;5864;52.998;9.068;2023-04-05T06:38:10;4.87;;;2.50;;
11616;SDS011;5864;52.998;9.068;2023-04-05T06:40:56;3.40;;;2.40;;
11616;SDS011;5864;52.998;9.068;2023-04-05T06:43:42;3.10;;;2.30;;
11616;SDS011;5864;52.998;9.068;2023-04-05T06:46:29;3.70;;;2.43;;
11616;SDS011;5864;52.998;9.068;2023-04-05T06:49:14;4.07;;;2.47;;
11616;SDS011;5864;52.998;9.068;2023-04-05T06:52:01;4.17;;;2.40;;
11616;SDS011;5864;52.998;9.068;2023-04-05T06:54:48;5.80;;;2.40;;
11616;SDS011;5864;52.998;9.068;2023-04-05T06:57:34;4.03;;;2.77;;
11616;SDS011;5864;52.998;9.068;2023-04-05T07:00:20;4.07;;;2.63;;
11616;SDS011;5864;52.998;9.068;2023-04-05T07:03:07;5.20;;;2.97;;
11616;SDS011;5864;52.998;9.068;2023-04-05T07:05:53;4.87;;;3.00;;
11616;SDS011;5864;52.998;9.068;2023-04-05T07:08:41;4.60;;;2.50;;
11616;SDS011;5864;52.998;9.068;2023-04-05T07:11:27;4.97;;;3.00;;
11616;SDS011;5864;52.998;9.068;2023-04-05T07:14:15;5.03;;;2.80;;
11616;SDS011;5864;52.998;9.068;2023-04-05T07:17:01;5.60;;;2.90;;
11616;SDS011;5864;52.998;9.068;2023-04-05T07:19:50;4.87;;;2.80;;
11616;SDS011;5864;52.998;9.068;2023-04-05T07:22:35;4.10;;;2.80;;
11616;SDS011;5864;52.998;9.068;2023-04-05T07:25:21;5.37;;;2.77;;
11616;SDS011;5864;52.998;9.068;2023-04-05T07:28:06;5.50;;;2.77;;
11616;SDS011;5864;52.998;9.068;2023-04-05T07:30:52;3.77;;;3.00;;
11616;SDS011;5864;52.998;9.068;2023-04-05T07:33:38;4.80;;;2.88;;
11616;SDS011;5864;52.998;9.068;2023-04-05T07:36:25;3.73;;;2.90;;
11616;SDS011;5864;52.998;9.068;2023-04-05T07:39:11;5.03;;;2.60;;
11616;SDS011;5864;52.998;9.068;2023-04-05T07:41:56;4.83;;;3.00;;
11616;SDS011;5864;52.998;9.068;2023-04-05T07:44:42;4.23;;;2.87;;
11616;SDS011;5864;52.998;9.068;2023-04-05T07:47:28;3.57;;;2.60;;
11616;SDS011;5864;52.998;9.068;2023-04-05T07:50:13;4.27;;;2.77;;
11616;SDS011;5864;52.998;9.068;2023-04-05T07:53:01;6.77;;;2.80;;
11616;SDS011;5864;52.998;9.068;2023-04-05T07:55:48;5.63;;;2.70;;
11616;SDS011;5864;52.998;9.068;2023-04-05T07:58:34;4.37;;;2.73;;
11616;SDS011;5864;52.998;9.068;2023-04-05T08:01:23;4.13;;;2.60;;
11616;SDS011;5864;52.998;9.068;2023-04-05T08:04:11;4.93;;;3.00;;
11616;SDS011;5864;52.998;9.068;2023-04-05T08:06:57;4.47;;;2.70;;
11616;SDS011;5864;52.998;9.068;2023-04-05T08:09:44;5.50;;;2.50;;
11616;SDS011;5864;52.998;9.068;2023-04-05T08:12:30;3.40;;;2.50;;
11616;SDS011;5864;52.998;9.068;2023-04-05T08:15:16;3.30;;;2.57;;
11616;SDS011;5864;52.998;9.068;2023-04-05T08:18:02;3.63;;;2.60;;
11616;SDS011;5864;52.998;9.068;2023-04-05T08:20:49;3.00;;;2.47;;
11616;SDS011;5864;52.998;9.068;2023-04-05T08:23:35;3.57;;;2.57;;
11616;SDS011;5864;52.998;9.068;2023-04-05T08:26:22;2.93;;;2.63;;
11616;SDS011;5864;52.998;9.068;2023-04-05T08:29:08;4.03;;;2.63;;
11616;SDS011;5864;52.998;9.068;2023-04-05T08:31:55;3.73;;;2.53;;
11616;SDS011;5864;52.998;9.068;2023-04-05T08:34:41;3.40;;;2.20;;
11616;SDS011;5864;52.998;9.068;2023-04-05T08:37:26;3.90;;;2.30;;
11616;SDS011;5864;52.998;9.068;2023-04-05T08:40:12;6.13;;;2.50;;
11616;SDS011;5864;52.998;9.068;2023-04-05T08:43:02;4.53;;;2.13;;
11616;SDS011;5864;52.998;9.068;2023-04-05T08:45:53;5.57;;;2.20;;
11616;SDS011;5864;52.998;9.068;2023-04-05T08:48:42;3.97;;;2.70;;
11616;SDS011;5864;52.998;9.068;2023-04-05T08:51:28;3.73;;;2.17;;
11616;SDS011;5864;52.998;9.068;2023-04-05T08:54:13;3.43;;;2.50;;
11616;SDS011;5864;52.998;9.068;2023-04-05T08:56:59;3.40;;;2.60;;
11616;SDS011;5864;52.998;9.068;2023-04-05T08:59:49;5.07;;;2.30;;
11616;SDS011;5864;52.998;9.068;2023-04-05T09:02:35;3.23;;;2.63;;
11616;SDS011;5864;52.998;9.068;2023-04-05T09:05:23;5.93;;;2.53;;
11616;SDS011;5864;52.998;9.068;2023-04-05T09:08:09;3.00;;;2.10;;
11616;SDS011;5864;52.998;9.068;2023-04-05T09:10:56;4.03;;;2.00;;
11616;SDS011;5864;52.998;9.068;2023-04-05T09:13:42;2.77;;;2.00;;
11616;SDS011;5864;52.998;9.068;2023-04-05T09:16:29;3.47;;;1.97;;
11616;SDS011;5864;52.998;9.068;2023-04-05T09:19:17;3.40;;;2.07;;
11616;SDS011;5864;52.998;9.068;2023-04-05T09:22:04;3.17;;;2.50;;
11616;SDS011;5864;52.998;9.068;2023-04-05T09:24:50;2.23;;;1.97;;
11616;SDS011;5864;52.998;9.068;2023-04-05T09:27:35;2.77;;;1.73;;
11616;SDS011;5864;52.998;9.068;2023-04-05T09:30:42;3.40;;;1.50;;
11616;SDS011;5864;52.998;9.068;2023-04-05T09:33:31;2.73;;;2.10;;
11616;SDS011;5864;52.998;9.068;2023-04-05T09:36:18;3.60;;;2.10;;
11616;SDS011;5864;52.998;9.068;2023-04-05T09:39:04;2.97;;;2.03;;
11616;SDS011;5864;52.998;9.068;2023-04-05T09:42:02;2.93;;;1.90;;
11616;SDS011;5864;52.998;9.068;2023-04-05T09:44:53;4.20;;;2.53;;
11616;SDS011;5864;52.998;9.068;2023-04-05T09:47:39;3.27;;;2.10;;
11616;SDS011;5864;52.998;9.068;2023-04-05T09:50:26;4.20;;;2.07;;
11616;SDS011;5864;52.998;9.068;2023-04-05T09:53:12;2.23;;;2.03;;
11616;SDS011;5864;52.998;9.068;2023-04-05T09:56:02;3.33;;;2.17;;
11616;SDS011;5864;52.998;9.068;2023-04-05T09:58:57;2.87;;;2.17;;
11616;SDS011;5864;52.998;9.068;2023-04-05T10:01:43;3.30;;;2.03;;
11616;SDS011;5864;52.998;9.068;2023-04-05T10:04:37;2.80;;;1.90;;
11616;SDS011;5864;52.998;9.068;2023-04-05T10:07:26;2.90;;;2.10;;
11616;SDS011;5864;52.998;9.068;2023-04-05T10:10:11;3.00;;;1.90;;
11616;SDS011;5864;52.998;9.068;2023-04-05T10:12:58;2.20;;;2.00;;
11616;SDS011;5864;52.998;9.068;2023-04-05T10:15:46;2.37;;;1.90;;
11616;SDS011;5864;52.998;9.068;2023-04-05T10:18:38;4.50;;;2.30;;
11616;SDS011;5864;52.998;9.068;2023-04-05T10:21:28;2.37;;;2.10;;
11616;SDS011;5864;52.998;9.068;2023-04-05T10:24:20;3.10;;;1.80;;
11616;SDS011;5864;52.998;9.068;2023-04-05T10:27:20;2.83;;;2.03;;
11616;SDS011;5864;52.998;9.068;2023-04-05T10:30:11;3.77;;;2.13;;
11616;SDS011;5864;52.998;9.068;2023-04-05T10:33:00;4.17;;;2.37;;
11616;SDS011;5864;52.998;9.068;2023-04-05T10:35:55;2.67;;;1.83;;
11616;SDS011;5864;52.998;9.068;2023-04-05T10:38:50;2.90;;;1.97;;
11616;SDS011;5864;52.998;9.068;2023-04-05T10:41:45;4.10;;;2.23;;
11616;SDS011;5864;52.998;9.068;2023-04-05T10:44:32;2.83;;;1.83;;
11616;SDS011;5864;52.998;9.068;2023-04-05T10:47:20;2.30;;;2.10;;
11616;SDS011;5864;52.998;9.068;2023-04-05T10:50:11;3.40;;;2.27;;
11616;SDS011;5864;52.998;9.068;2023-04-05T10:53:03;4.40;;;2.30;;
11616;SDS011;5864;52.998;9.068;2023-04-05T10:55:50;2.93;;;1.97;;
11616;SDS011;5864;52.998;9.068;2023-04-05T10:58:38;5.60;;;1.93;;
11616;SDS011;5864;52.998;9.068;2023-04-05T11:01:25;3.73;;;2.10;;
11616;SDS011;5864;52.998;9.068;2023-04-05T11:04:11;4.30;;;2.10;;
11616;SDS011;5864;52.998;9.068;2023-04-05T11:07:11;2.97;;;2.33;;
11616;SDS011;5864;52.998;9.068;2023-04-05T11:09:59;3.27;;;2.30;;
11616;SDS011;5864;52.998;9.068;2023-04-05T11:13:02;2.67;;;1.80;;
11616;SDS011;5864;52.998;9.068;2023-04-05T11:16:08;3.03;;;1.53;;
11616;SDS011;5864;52.998;9.068;2023-04-05T11:18:54;4.00;;;2.43;;
11616;SDS011;5864;52.998;9.068;2023-04-05T11:21:39;2.57;;;1.93;;
11616;SDS011;5864;52.998;9.068;2023-04-05T11:24:27;2.67;;;1.83;;
11616;SDS011;5864;52.998;9.068;2023-04-05T11:27:36;2.27;;;1.97;;
11616;SDS011;5864;52.998;9.068;2023-04-05T11:30:44;2.40;;;1.80;;
11616;SDS011;5864;52.998;9.068;2023-04-05T11:33:52;2.40;;;1.70;;
11616;SDS011;5864;52.998;9.068;2023-04-05T11:36:41;2.33;;;1.80;;
11616;SDS011;5864;52.998;9.068;2023-04-05T11:39:28;2.77;;;1.93;;
11616;SDS011;5864;52.998;9.068;2023-04-05T11:42:14;3.87;;;2.03;;
11616;SDS011;5864;52.998;9.068;2023-04-05T11:45:01;2.73;;;2.13;;
11616;SDS011;5864;52.998;9.068;2023-04-05T11:47:47;2.03;;;1.63;;
11616;SDS011;5864;52.998;9.068;2023-04-05T11:50:34;2.53;;;1.90;;
11616;SDS011;5864;52.998;9.068;2023-04-05T11:53:21;1.87;;;1.60;;
11616;SDS011;5864;52.998;9.068;2023-04-05T11:56:08;3.00;;;1.50;;
11616;SDS011;5864;52.998;9.068;2023-04-05T11:58:56;4.03;;;1.80;;
11616;SDS011;5864;52.998;9.068;2023-04-05T12:01:43;4.77;;;1.67;;
11616;SDS011;5864;52.998;9.068;2023-04-05T12:04:29;2.63;;;1.90;;
11616;SDS011;5864;52.998;9.068;2023-04-05T12:07:16;2.20;;;2.00;;
11616;SDS011;5864;52.998;9.068;2023-04-05T12:10:04;2.67;;;2.00;;
11616;SDS011;5864;52.998;9.068;2023-04-05T12:12:52;7.57;;;2.50;;
11616;SDS011;5864;52.998;9.068;2023-04-05T12:15:38;2.33;;;1.80;;
11616;SDS011;5864;52.998;9.068;2023-04-05T12:18:24;2.37;;;1.60;;
11616;SDS011;5864;52.998;9.068;2023-04-05T12:21:11;2.20;;;1.80;;
11616;SDS011;5864;52.998;9.068;2023-04-05T12:23:58;3.77;;;1.70;;
11616;SDS011;5864;52.998;9.068;2023-04-05T12:26:43;3.50;;;1.80;;
11616;SDS011;5864;52.998;9.068;2023-04-05T12:29:29;2.37;;;1.90;;
11616;SDS011;5864;52.998;9.068;2023-04-05T12:32:15;2.40;;;1.70;;
11616;SDS011;5864;52.998;9.068;2023-04-05T12:35:04;4.23;;;1.80;;
11616;SDS011;5864;52.998;9.068;2023-04-05T12:37:50;5.83;;;2.20;;
11616;SDS011;5864;52.998;9.068;2023-04-05T12:40:39;2.00;;;1.80;;
11616;SDS011;5864;52.998;9.068;2023-04-05T12:43:25;3.00;;;1.97;;
11616;SDS011;5864;52.998;9.068;2023-04-05T12:46:21;3.97;;;1.97;;
11616;SDS011;5864;52.998;9.068;2023-04-05T12:49:09;3.20;;;2.37;;
11616;SDS011;5864;52.998;9.068;2023-04-05T12:51:59;2.47;;;1.80;;
11616;SDS011;5864;52.998;9.068;2023-04-05T12:54:52;3.17;;;1.93;;
11616;SDS011;5864;52.998;9.068;2023-04-05T12:57:39;4.07;;;2.07;;
11616;SDS011;5864;52.998;9.068;2023-04-05T13:00:25;4.83;;;1.93;;
11616;SDS011;5864;52.998;9.068;2023-04-05T13:03:15;2.63;;;1.60;;
11616;SDS011;5864;52.998;9.068;2023-04-05T13:06:03;2.80;;;1.80;;
11616;SDS011;5864;52.998;9.068;2023-04-05T13:08:48;3.27;;;1.87;;
11616;SDS011;5864;52.998;9.068;2023-04-05T13:11:34;2.07;;;1.80;;
11616;SDS011;5864;52.998;9.068;2023-04-05T13:14:21;2.07;;;1.80;;
11616;SDS011;5864;52.998;9.068;2023-04-05T13:17:07;3.10;;;1.80;;
11616;SDS011;5864;52.998;9.068;2023-04-05T13:19:52;3.57;;;1.90;;
11616;SDS011;5864;52.998;9.068;2023-04-05T13:22:39;2.20;;;1.80;;
11616;SDS011;5864;52.998;9.068;2023-04-05T13:25:25;4.17;;;1.87;;
11616;SDS011;5864;52.998;9.068;2023-04-05T13:28:11;2.43;;;1.70;;
11616;SDS011;5864;52.998;9.068;2023-04-05T13:30:58;2.53;;;1.93;;
11616;SDS011;5864;52.998;9.068;2023-04-05T13:33:43;3.10;;;1.80;;
11616;SDS011;5864;52.998;9.068;2023-04-05T13:36:29;3.47;;;1.83;;
11616;SDS011;5864;52.998;9.068;2023-04-05T13:39:15;2.60;;;1.87;;
11616;SDS011;5864;52.998;9.068;2023-04-05T13:42:01;2.40;;;2.07;;
11616;SDS011;5864;52.998;9.068;2023-04-05T13:44:46;2.20;;;1.70;;
11616;SDS011;5864;52.998;9.068;2023-04-05T13:47:34;2.50;;;1.70;;
11616;SDS011;5864;52.998;9.068;2023-04-05T13:50:20;3.20;;;1.73;;
11616;SDS011;5864;52.998;9.068;2023-04-05T13:53:06;1.93;;;1.73;;
11616;SDS011;5864;52.998;9.068;2023-04-05T13:55:51;7.63;;;2.17;;
11616;SDS011;5864;52.998;9.068;2023-04-05T13:58:37;4.30;;;1.67;;
11616;SDS011;5864;52.998;9.068;2023-04-05T14:01:22;2.43;;;1.70;;
11616;SDS011;5864;52.998;9.068;2023-04-05T14:04:10;1.80;;;1.60;;
11616;SDS011;5864;52.998;9.068;2023-04-05T14:06:55;2.40;;;1.67;;
11616;SDS011;5864;52.998;9.068;2023-04-05T14:09:41;1.67;;;1.57;;
11616;SDS011;5864;52.998;9.068;2023-04-05T14:12:27;2.10;;;1.70;;
11616;SDS011;5864;52.998;9.068;2023-04-05T14:15:14;2.47;;;1.73;;
11616;SDS011;5864;52.998;9.068;2023-04-05T14:17:59;2.17;;;1.77;;
11616;SDS011;5864;52.998;9.068;2023-04-05T14:20:46;2.40;;;1.67;;
11616;SDS011;5864;52.998;9.068;2023-04-05T14:23:32;2.83;;;1.70;;
11616;SDS011;5864;52.998;9.068;2023-04-05T14:26:17;3.30;;;1.60;;
11616;SDS011;5864;52.998;9.068;2023-04-05T14:29:03;2.27;;;1.53;;
11616;SDS011;5864;52.998;9.068;2023-04-05T14:31:49;1.70;;;1.57;;
11616;SDS011;5864;52.998;9.068;2023-04-05T14:34:36;1.90;;;1.60;;
11616;SDS011;5864;52.998;9.068;2023-04-05T14:37:23;3.40;;;1.90;;
11616;SDS011;5864;52.998;9.068;2023-04-05T14:40:09;2.53;;;1.50;;
11616;SDS011;5864;52.998;9.068;2023-04-05T14:42:56;3.10;;;1.83;;
11616;SDS011;5864;52.998;9.068;2023-04-05T14:45:42;2.40;;;1.40;;
11616;SDS011;5864;52.998;9.068;2023-04-05T14:48:28;2.67;;;1.80;;
11616;SDS011;5864;52.998;9.068;2023-04-05T14:51:14;3.57;;;1.80;;
11616;SDS011;5864;52.998;9.068;2023-04-05T14:54:01;2.10;;;1.70;;
11616;SDS011;5864;52.998;9.068;2023-04-05T14:56:47;2.47;;;1.80;;
11616;SDS011;5864;52.998;9.068;2023-04-05T14:59:33;2.40;;;1.80;;
11616;SDS011;5864;52.998;9.068;2023-04-05T15:02:18;2.00;;;1.80;;
11616;SDS011;5864;52.998;9.068;2023-04-05T15:05:04;2.10;;;1.70;;
11616;SDS011;5864;52.998;9.068;2023-04-05T15:07:50;3.47;;;1.67;;
11616;SDS011;5864;52.998;9.068;2023-04-05T15:10:37;2.10;;;1.50;;
11616;SDS011;5864;52.998;9.068;2023-04-05T15:13:23;2.30;;;1.67;;
11616;SDS011;5864;52.998;9.068;2023-04-05T15:16:09;2.00;;;1.60;;
11616;SDS011;5864;52.998;9.068;2023-04-05T15:18:55;1.97;;;1.77;;
11616;SDS011;5864;52.998;9.068;2023-04-05T15:21:41;1.80;;;1.47;;
11616;SDS011;5864;52.998;9.068;2023-04-05T15:24:28;5.93;;;1.70;;
11616;SDS011;5864;52.998;9.068;2023-04-05T15:27:15;2.00;;;1.63;;
11616;SDS011;5864;52.998;9.068;2023-04-05T15:30:01;2.83;;;1.97;;
11616;SDS011;5864;52.998;9.068;2023-04-05T15:32:47;2.90;;;1.80;;
11616;SDS011;5864;52.998;9.068;2023-04-05T15:35:34;3.20;;;1.60;;
11616;SDS011;5864;52.998;9.068;2023-04-05T15:38:20;2.40;;;1.70;;
11616;SDS011;5864;52.998;9.068;2023-04-05T15:41:06;2.20;;;1.70;;
11616;SDS011;5864;52.998;9.068;2023-04-05T15:43:53;2.90;;;1.77;;
11616;SDS011;5864;52.998;9.068;2023-04-05T15:46:39;4.63;;;2.00;;
11616;SDS011;5864;52.998;9.068;2023-04-05T15:49:24;2.27;;;1.70;;
11616;SDS011;5864;52.998;9.068;2023-04-05T15:52:10;2.57;;;1.77;;
11616;SDS011;5864;52.998;9.068;2023-04-05T15:54:58;2.03;;;1.47;;
11616;SDS011;5864;52.998;9.068;2023-04-05T15:57:44;2.60;;;1.80;;
11616;SDS011;5864;52.998;9.068;2023-04-05T16:00:33;3.30;;;1.83;;
11616;SDS011;5864;52.998;9.068;2023-04-05T16:03:19;8.73;;;2.50;;
11616;SDS011;5864;52.998;9.068;2023-04-05T16:06:04;3.73;;;1.90;;
11616;SDS011;5864;52.998;9.068;2023-04-05T16:08:50;1.80;;;1.40;;
11616;SDS011;5864;52.998;9.068;2023-04-05T16:11:37;2.47;;;1.73;;
11616;SDS011;5864;52.998;9.068;2023-04-05T16:14:23;2.07;;;1.70;;
11616;SDS011;5864;52.998;9.068;2023-04-05T16:17:10;2.77;;;1.50;;
11616;SDS011;5864;52.998;9.068;2023-04-05T16:19:55;2.97;;;1.60;;
11616;SDS011;5864;52.998;9.068;2023-04-05T16:22:41;5.97;;;1.87;;
11616;SDS011;5864;52.998;9.068;2023-04-05T16:25:27;4.43;;;1.77;;
11616;SDS011;5864;52.998;9.068;2023-04-05T16:28:13;2.00;;;1.60;;
11616;SDS011;5864;52.998;9.068;2023-04-05T16:30:58;3.33;;;1.90;;
11616;SDS011;5864;52.998;9.068;2023-04-05T16:33:45;2.33;;;1.50;;
11616;SDS011;5864;52.998;9.068;2023-04-05T16:36:31;5.77;;;2.00;;
11616;SDS011;5864;52.998;9.068;2023-04-05T16:39:16;2.17;;;1.77;;
11616;SDS011;5864;52.998;9.068;2023-04-05T16:42:03;2.63;;;1.90;;
11616;SDS011;5864;52.998;9.068;2023-04-05T16:44:49;2.63;;;1.77;;
11616;SDS011;5864;52.998;9.068;2023-04-05T16:47:35;2.83;;;1.83;;
11616;SDS011;5864;52.998;9.068;2023-04-05T16:50:22;2.90;;;2.50;;
11616;SDS011;5864;52.998;9.068;2023-04-05T16:53:07;1.93;;;1.73;;
11616;SDS011;5864;52.998;9.068;2023-04-05T16:55:54;2.13;;;1.60;;
11616;SDS011;5864;52.998;9.068;2023-04-05T16:58:40;2.07;;;1.87;;
11616;SDS011;5864;52.998;9.068;2023-04-05T17:01:26;5.47;;;4.00;;
11616;SDS011;5864;52.998;9.068;2023-04-05T17:04:11;5.47;;;4.43;;